Time;durP1;ratioP1;P1;durP2;ratioP2;P2;SDS_P1;SDS_P2;PMS_P1;PMS_P2;Temp;Humidity;BMP_temperature;BMP_pressure;BME280_temperature;BME280_humidity;BME280_pressure;Samples;Min_cycle;Max_cycle;Signal;HPM_P1;HPM_P2
2022/11/06 00:00:05;;;;;;;1999.90;999.90;;;9.10;99.90;;;;;;5055576;28;20175;-67
2022/11/06 00:02:30;;;;;;;1999.90;999.90;;;9.10;99.90;;;;;;5055766;28;20168;-68
2022/11/06 00:06:46;;;;;;;1999.90;999.90;;;9.10;99.90;;;;;;5055181;28;20505;-67
2022/11/06 00:07:48;;;;;;;1999.90;999.90;;;9.10;99.90;;;;;;5055688;28;20282;-67
2022/11/06 00:10:15;;;;;;;1999.90;999.90;;;9.10;99.90;;;;;;5055994;28;20428;-67
2022/11/06 00:12:41;;;;;;;1999.90;999.90;;;9.10;99.90;;;;;;5055847;28;20411;-67
2022/11/06 00:15:07;;;;;;;1999.90;999.90;;;9.10;99.90;;;;;;5056057;28;20423;-67
2022/11/06 00:17:32;;;;;;;1999.90;999.90;;;9.10;99.90;;;;;;5055557;28;20183;-67
2022/11/06 00:19:58;;;;;;;1999.90;999.90;;;9.10;99.90;;;;;;5055879;28;20409;-67
2022/11/06 00:22:23;;;;;;;1999.90;999.90;;;9.10;99.90;;;;;;5056468;28;20174;-67
2022/11/06 00:24:49;;;;;;;1999.90;999.90;;;9.10;99.90;;;;;;5055181;28;20221;-67
2022/11/06 00:27:15;;;;;;;1999.90;999.90;;;9.00;99.90;;;;;;5054795;28;20623;-67
2022/11/06 00:29:41;;;;;;;1999.90;999.90;;;9.00;99.90;;;;;;5056246;28;20170;-67
2022/11/06 00:32:07;;;;;;;1999.90;999.90;;;9.00;99.90;;;;;;5054802;28;20404;-67
2022/11/06 00:34:33;;;;;;;1999.90;999.90;;;9.10;99.90;;;;;;5053828;28;20200;-67
2022/11/06 00:36:58;;;;;;;1999.90;999.90;;;9.20;99.90;;;;;;5055288;28;20806;-68
2022/11/06 00:39:25;;;;;;;1999.90;999.90;;;9.20;99.90;;;;;;5055050;28;20249;-67
2022/11/06 00:41:51;;;;;;;1999.90;999.90;;;9.20;99.90;;;;;;5054541;28;20170;-68
2022/11/06 00:44:16;;;;;;;1999.90;999.90;;;9.20;99.90;;;;;;5054621;28;20432;-68
2022/11/06 00:46:42;;;;;;;1999.90;999.90;;;9.30;99.90;;;;;;5054432;28;20178;-68
2022/11/06 00:49:07;;;;;;;1999.90;999.90;;;9.30;99.90;;;;;;5054581;28;20208;-68
2022/11/06 00:51:35;;;;;;;1999.90;999.90;;;9.30;99.90;;;;;;5055324;28;20176;-68
2022/11/06 00:54:03;;;;;;;1999.90;999.90;;;9.40;99.90;;;;;;5054828;28;20256;-67
2022/11/06 00:56:30;;;;;;;1999.90;999.90;;;9.50;99.90;;;;;;5054638;28;20762;-67
2022/11/06 00:58:59;;;;;;;1999.90;999.90;;;9.40;99.90;;;;;;5054395;28;20914;-68
2022/11/06 01:01:28;;;;;;;1999.90;999.90;;;9.40;99.90;;;;;;5054078;28;20413;-68
2022/11/06 01:03:59;;;;;;;1999.90;999.90;;;9.40;99.90;;;;;;5054764;28;20475;-67
2022/11/06 01:06:27;;;;;;;1999.90;999.90;;;9.40;99.90;;;;;;5054513;28;20494;-67
2022/11/06 01:08:53;;;;;;;1999.90;999.90;;;9.30;99.90;;;;;;5053727;28;20445;-67
2022/11/06 01:11:20;;;;;;;1999.90;999.90;;;9.30;99.90;;;;;;5053782;28;20456;-68
2022/11/06 01:13:49;;;;;;;1999.90;999.90;;;9.40;99.90;;;;;;5054221;28;20998;-67
2022/11/06 01:16:15;;;;;;;1999.90;999.90;;;9.40;99.90;;;;;;5054431;28;20431;-67
2022/11/06 01:18:42;;;;;;;1999.90;999.90;;;9.40;99.90;;;;;;5053674;28;20461;-68
2022/11/06 01:21:17;;;;;;;1999.90;999.90;;;9.30;99.90;;;;;;5053216;28;20462;-67
2022/11/06 01:23:43;;;;;;;1999.90;999.90;;;9.30;99.90;;;;;;5061133;28;20444;-67
2022/11/06 01:26:10;;;;;;;1999.90;999.90;;;9.30;99.90;;;;;;5062401;28;20774;-67
2022/11/06 01:28:37;;;;;;;1999.90;999.90;;;9.10;99.90;;;;;;5063674;28;20525;-67
2022/11/06 01:31:12;;;;;;;1999.90;999.90;;;9.10;99.90;;;;;;5063786;28;20394;-67
2022/11/06 01:33:37;;;;;;;1999.90;999.90;;;9.00;99.90;;;;;;5055734;28;20416;-67
2022/11/06 01:36:04;;;;;;;1999.90;999.90;;;9.00;99.90;;;;;;5053155;28;20407;-67
2022/11/06 01:38:29;;;;;;;1999.90;999.90;;;9.00;99.90;;;;;;5053172;28;20180;-67
2022/11/06 01:40:55;;;;;;;1999.90;999.90;;;9.00;99.90;;;;;;5053655;28;20910;-67
2022/11/06 01:43:23;;;;;;;1999.90;999.90;;;9.00;99.90;;;;;;5053590;28;20195;-67
2022/11/06 01:45:54;;;;;;;1999.90;999.90;;;9.00;99.90;;;;;;5054525;28;20172;-67
2022/11/06 01:48:24;;;;;;;1999.90;999.90;;;9.00;99.90;;;;;;5057212;28;20452;-67
2022/11/06 01:50:53;;;;;;;1999.90;999.90;;;8.90;99.90;;;;;;5057348;28;20410;-67
2022/11/06 01:53:20;;;;;;;1999.90;999.90;;;9.00;99.90;;;;;;5057124;28;20565;-67
2022/11/06 01:55:50;;;;;;;1999.90;999.90;;;8.90;99.90;;;;;;5058433;28;20402;-67
2022/11/06 01:58:18;;;;;;;1999.90;999.90;;;8.90;99.90;;;;;;5065360;28;20527;-67
2022/11/06 02:00:45;;;;;;;1999.90;999.90;;;9.00;99.90;;;;;;5065101;28;20826;-67
2022/11/06 02:03:11;;;;;;;1999.90;999.90;;;9.00;99.90;;;;;;5064998;28;20968;-67
2022/11/06 02:05:38;;;;;;;1999.90;999.90;;;9.00;99.90;;;;;;5065105;28;20418;-67
2022/11/06 02:08:05;;;;;;;1999.90;999.90;;;9.00;99.90;;;;;;5064770;28;20612;-67
2022/11/06 02:10:31;;;;;;;1999.90;999.90;;;9.00;99.90;;;;;;5065239;28;20459;-67
2022/11/06 02:13:12;;;;;;;1999.90;999.90;;;8.90;99.90;;;;;;5065202;28;20471;-67
2022/11/06 02:15:52;;;;;;;1999.90;999.90;;;8.90;99.90;;;;;;5066043;28;20409;-67
2022/11/06 02:18:36;;;;;;;1999.90;999.90;;;9.00;99.90;;;;;;5065145;28;20444;-67
2022/11/06 02:21:07;;;;;;;1999.90;999.90;;;9.00;99.90;;;;;;5065556;28;21115;-67
2022/11/06 02:24:15;;;;;;;1999.90;999.90;;;9.00;99.90;;;;;;5113578;22;20989;-65
2022/11/06 02:27:05;;;;;;;1999.90;999.90;;;8.90;99.90;;;;;;5048177;28;20402;-65
2022/11/06 02:29:46;;;;;;;1999.90;999.90;;;8.90;99.90;;;;;;5095792;28;20442;-65
2022/11/06 02:32:29;;;;;;;1999.90;999.90;;;8.90;99.90;;;;;;5095770;28;20417;-65
2022/11/06 02:34:59;;;;;;;1999.90;999.90;;;8.90;99.90;;;;;;5095901;28;20412;-65
2022/11/06 02:37:29;;;;;;;1999.90;999.90;;;8.80;99.90;;;;;;5095544;28;20385;-65
2022/11/06 02:39:58;;;;;;;1999.90;999.90;;;8.80;99.90;;;;;;5095639;28;20734;-65
2022/11/06 02:42:27;;;;;;;1999.90;999.90;;;8.80;99.90;;;;;;5095578;28;20394;-65
2022/11/06 02:44:55;;;;;;;1999.90;999.90;;;8.70;99.90;;;;;;5095311;28;20413;-65
2022/11/06 02:47:24;;;;;;;1999.90;999.90;;;8.70;99.90;;;;;;5094825;28;20474;-65
2022/11/06 02:49:54;;;;;;;1999.90;999.90;;;8.60;99.90;;;;;;5094499;28;20487;-65
2022/11/06 02:52:25;;;;;;;1999.90;999.90;;;8.60;99.90;;;;;;5094301;28;20452;-65
2022/11/06 02:55:14;;;;;;;1999.90;999.90;;;8.60;99.90;;;;;;5094202;28;20448;-65
2022/11/06 02:57:45;;;;;;;1999.90;999.90;;;8.50;99.90;;;;;;5093047;28;20458;-65
2022/11/06 03:00:15;;;;;;;1999.90;999.90;;;8.40;99.90;;;;;;5094455;28;20479;-65
2022/11/06 03:02:59;;;;;;;1999.90;999.90;;;8.20;99.90;;;;;;5094804;28;20435;-65
2022/11/06 03:05:33;;;;;;;1999.90;999.90;;;8.20;99.90;;;;;;5094345;28;20446;-65
2022/11/06 03:08:25;;;;;;;1999.90;999.90;;;8.10;99.90;;;;;;5094082;28;20441;-65
2022/11/06 03:11:05;;;;;;;1999.90;999.90;;;8.10;99.90;;;;;;5097633;28;20964;-65
2022/11/06 03:14:20;;;;;;;1999.90;999.90;;;8.00;99.90;;;;;;5097051;28;20425;-65
2022/11/06 03:17:08;;;;;;;1999.90;999.90;;;8.00;99.90;;;;;;5080867;28;20444;-65
2022/11/06 03:19:49;;;;;;;1999.90;999.90;;;8.00;99.90;;;;;;5093574;28;20396;-65
2022/11/06 03:22:51;;;;;;;1999.90;999.90;;;7.90;99.90;;;;;;5093981;28;20765;-65
2022/11/06 03:25:39;;;;;;;1999.90;999.90;;;7.90;99.90;;;;;;5094125;28;20435;-65
2022/11/06 03:28:09;;;;;;;1999.90;999.90;;;7.90;99.90;;;;;;5094029;28;20463;-65
2022/11/06 03:30:42;;;;;;;1999.90;999.90;;;7.90;99.90;;;;;;5094260;28;20392;-65
2022/11/06 03:33:23;;;;;;;1999.90;999.90;;;7.70;99.90;;;;;;5094154;28;20783;-65
2022/11/06 03:36:03;;;;;;;1999.90;999.90;;;7.70;99.90;;;;;;5094425;28;20422;-65
2022/11/06 03:38:43;;;;;;;1999.90;999.90;;;7.70;99.90;;;;;;5093812;28;20407;-65
2022/11/06 03:41:29;;;;;;;1999.90;999.90;;;7.60;99.90;;;;;;5093942;28;20407;-65
2022/11/06 03:43:58;;;;;;;1999.90;999.90;;;7.70;99.90;;;;;;5093653;28;20420;-65
2022/11/06 03:46:25;;;;;;;1999.90;999.90;;;7.70;99.90;;;;;;5093805;28;20401;-65
2022/11/06 03:49:12;;;;;;;1999.90;999.90;;;7.70;99.90;;;;;;5093453;28;20952;-65
2022/11/06 03:52:13;;;;;;;1999.90;999.90;;;7.70;99.90;;;;;;5093721;28;20405;-65
2022/11/06 03:54:53;;;;;;;1999.90;999.90;;;7.70;99.90;;;;;;5079434;28;20499;-65
2022/11/06 03:57:29;;;;;;;1999.90;999.90;;;7.70;99.90;;;;;;5093454;28;20473;-65
2022/11/06 03:59:59;;;;;;;1999.90;999.90;;;7.80;99.90;;;;;;5093711;28;20934;-65
2022/11/06 04:02:29;;;;;;;1999.90;999.90;;;7.80;99.90;;;;;;5093715;28;20755;-65
2022/11/06 04:04:58;;;;;;;1999.90;999.90;;;7.80;99.90;;;;;;5093365;28;20442;-65
2022/11/06 04:07:29;;;;;;;1999.90;999.90;;;7.80;99.90;;;;;;5093067;28;20526;-65
2022/11/06 04:15:35;;;;;;;1999.90;999.90;;;7.90;99.90;;;;;;5093361;28;20420;-65
2022/11/06 04:18:01;;;;;;;1999.90;999.90;;;7.80;99.90;;;;;;5093195;28;20778;-65
2022/11/06 04:23:37;;;;;;;1999.90;999.90;;;7.70;99.90;;;;;;5093222;28;20203;-65
2022/11/06 04:29:17;;;;;;;1999.90;999.90;;;7.70;99.90;;;;;;5093101;28;20884;-65
2022/11/06 04:32:10;;;;;;;1999.90;999.90;;;7.60;99.90;;;;;;5093253;28;20772;-65
2022/11/06 04:34:44;;;;;;;1999.90;999.90;;;7.60;99.90;;;;;;5093269;28;20481;-65
2022/11/06 04:37:14;;;;;;;1999.90;999.90;;;7.60;99.90;;;;;;5093302;28;20458;-65
2022/11/06 04:40:04;;;;;;;1999.90;999.90;;;7.60;99.90;;;;;;5093214;28;20799;-65
2022/11/06 04:42:41;;;;;;;1999.90;999.90;;;7.70;99.90;;;;;;5093534;28;20410;-65
2022/11/06 04:45:13;;;;;;;1999.90;999.90;;;7.80;99.90;;;;;;5093174;28;20417;-65
2022/11/06 04:47:39;;;;;;;1999.90;999.90;;;8.00;99.90;;;;;;5092633;28;20512;-65
2022/11/06 04:50:07;;;;;;;1999.90;999.90;;;8.10;99.90;;;;;;5092659;28;20450;-65
2022/11/06 04:52:35;;;;;;;1999.90;999.90;;;8.20;99.90;;;;;;5092559;28;20407;-65
2022/11/06 04:55:01;;;;;;;1999.90;999.90;;;8.30;99.90;;;;;;5092725;28;20419;-65
2022/11/06 04:57:27;;;;;;;1999.90;999.90;;;8.40;99.90;;;;;;5092498;28;20455;-65
2022/11/06 04:59:52;;;;;;;1999.90;999.90;;;8.30;99.90;;;;;;5092749;28;20179;-65
2022/11/06 05:02:18;;;;;;;1999.90;999.90;;;8.40;99.90;;;;;;5092842;28;20260;-65
2022/11/06 05:04:44;;;;;;;1999.90;999.90;;;8.40;99.90;;;;;;5092583;28;20424;-65
2022/11/06 05:07:14;;;;;;;1999.90;999.90;;;8.50;99.90;;;;;;5091757;28;20381;-65
2022/11/06 05:09:40;;;;;;;1999.90;999.90;;;8.50;99.90;;;;;;5091867;28;20400;-65
2022/11/06 05:12:05;;;;;;;1999.90;999.90;;;8.50;99.90;;;;;;5092007;28;20498;-65
2022/11/06 05:14:32;;;;;;;1999.90;999.90;;;8.40;99.90;;;;;;5092165;28;20501;-64
2022/11/06 05:16:58;;;;;;;1999.90;999.90;;;8.30;99.90;;;;;;5091946;28;20178;-65
2022/11/06 05:19:24;;;;;;;1999.90;999.90;;;8.20;99.90;;;;;;5092416;28;20406;-65
2022/11/06 05:24:33;;;;;;;1999.90;999.90;;;8.00;99.90;;;;;;5096436;28;20254;-64
2022/11/06 05:26:59;;;;;;;1999.90;999.90;;;8.00;99.90;;;;;;5096248;28;20843;-65
2022/11/06 05:29:25;;;;;;;1999.90;999.90;;;8.00;99.90;;;;;;5096384;28;20250;-65
2022/11/06 05:31:50;;;;;;;1999.90;999.90;;;8.10;99.90;;;;;;5096435;28;20178;-65
2022/11/06 05:34:16;;;;;;;1999.90;999.90;;;8.10;99.90;;;;;;5096204;28;20486;-65
2022/11/06 05:36:42;;;;;;;1999.90;999.90;;;8.20;99.90;;;;;;5096317;28;20171;-64
2022/11/06 05:39:07;;;;;;;1999.90;999.90;;;8.30;99.90;;;;;;5096648;28;20630;-64
2022/11/06 05:41:33;;;;;;;1999.90;999.90;;;8.30;99.90;;;;;;5095657;28;20628;-65
2022/11/06 05:43:58;;;;;;;1999.90;999.90;;;8.40;99.90;;;;;;5095597;28;20274;-64
2022/11/06 05:46:24;;;;;;;1999.90;999.90;;;8.40;99.90;;;;;;5096029;28;20242;-65
2022/11/06 05:48:50;;;;;;;1999.90;999.90;;;8.40;99.90;;;;;;5095393;28;20195;-65
2022/11/06 05:51:15;;;;;;;1999.90;999.90;;;8.50;99.90;;;;;;5095635;28;20172;-65
2022/11/06 05:53:41;;;;;;;1999.90;999.90;;;8.50;99.90;;;;;;5095175;28;20254;-65
2022/11/06 05:56:07;;;;;;;1999.90;999.90;;;8.50;99.90;;;;;;5095191;28;20174;-65
2022/11/06 05:58:32;;;;;;;1999.90;999.90;;;8.60;99.90;;;;;;5094998;28;20171;-65
2022/11/06 06:00:58;;;;;;;1999.90;999.90;;;8.60;99.90;;;;;;5095164;28;20417;-65
2022/11/06 06:03:24;;;;;;;1999.90;999.90;;;8.60;99.90;;;;;;5094966;28;20424;-65
2022/11/06 06:05:50;;;;;;;1999.90;999.90;;;8.60;99.90;;;;;;5095026;28;20789;-65
2022/11/06 06:08:16;;;;;;;1999.90;999.90;;;8.60;99.90;;;;;;5094728;28;20822;-65
2022/11/06 06:10:43;;;;;;;1999.90;999.90;;;8.60;99.90;;;;;;5095752;28;20225;-65
2022/11/06 06:13:09;;;;;;;1999.90;999.90;;;8.60;99.90;;;;;;5095491;28;20771;-65
2022/11/06 06:15:38;;;;;;;1999.90;999.90;;;8.60;99.90;;;;;;5094904;28;20420;-65
2022/11/06 06:18:04;;;;;;;1999.90;999.90;;;8.60;99.90;;;;;;5094553;28;20421;-65
2022/11/06 06:20:30;;;;;;;1999.90;999.90;;;8.50;99.90;;;;;;5095439;28;20571;-65
2022/11/06 06:22:57;;;;;;;1999.90;999.90;;;8.50;99.90;;;;;;5094805;28;20483;-64
2022/11/06 06:25:24;;;;;;;1999.90;999.90;;;8.50;99.90;;;;;;5094605;28;20187;-65
2022/11/06 06:27:50;;;;;;;1999.90;999.90;;;8.60;99.90;;;;;;5094420;28;20449;-65
2022/11/06 06:30:16;;;;;;;1999.90;999.90;;;8.60;99.90;;;;;;5094841;28;20808;-65
2022/11/06 06:32:42;;;;;;;1999.90;999.90;;;8.60;99.90;;;;;;5093295;28;20397;-64
2022/11/06 06:35:08;;;;;;;1999.90;999.90;;;8.60;99.90;;;;;;5094403;28;20475;-65
2022/11/06 06:37:34;;;;;;;1999.90;999.90;;;8.60;99.90;;;;;;5094813;28;20198;-65
2022/11/06 06:40:00;;;;;;;1999.90;999.90;;;8.60;99.90;;;;;;5094553;28;20440;-65
2022/11/06 06:42:27;;;;;;;1999.90;999.90;;;8.50;99.90;;;;;;5094467;28;20166;-65
2022/11/06 06:44:53;;;;;;;1999.90;999.90;;;8.50;99.90;;;;;;5095235;28;20648;-65
2022/11/06 06:47:18;;;;;;;1999.90;999.90;;;8.60;99.90;;;;;;5094857;28;20513;-65
2022/11/06 06:49:44;;;;;;;1999.90;999.90;;;8.60;99.90;;;;;;5094202;28;20166;-65
2022/11/06 06:52:11;;;;;;;1999.90;999.90;;;8.60;99.90;;;;;;5094170;28;20561;-65
2022/11/06 06:54:37;;;;;;;1999.90;999.90;;;8.60;99.90;;;;;;5094319;28;20440;-65
2022/11/06 06:57:03;;;;;;;1999.90;999.90;;;8.70;99.90;;;;;;5094346;28;20938;-65
2022/11/06 06:59:29;;;;;;;1999.90;999.90;;;8.70;99.90;;;;;;5094387;28;20164;-65
2022/11/06 07:01:56;;;;;;;1999.90;999.90;;;8.70;99.90;;;;;;5094503;28;20410;-65
2022/11/06 07:04:22;;;;;;;1999.90;999.90;;;8.80;99.90;;;;;;5094738;28;20470;-65
2022/11/06 07:06:47;;;;;;;1999.90;999.90;;;8.80;99.90;;;;;;5094661;28;20954;-65
2022/11/06 07:09:13;;;;;;;1999.90;999.90;;;8.90;99.90;;;;;;5093686;28;20202;-65
2022/11/06 07:11:39;;;;;;;1999.90;999.90;;;8.90;99.90;;;;;;5093892;28;20164;-65
2022/11/06 07:14:04;;;;;;;1999.90;999.90;;;8.90;99.90;;;;;;5094651;28;20283;-66
2022/11/06 07:16:31;;;;;;;1999.90;999.90;;;9.00;99.90;;;;;;5094310;28;20171;-64
2022/11/06 07:18:57;;;;;;;1999.90;999.90;;;9.10;99.90;;;;;;5094277;28;20213;-66
2022/11/06 07:21:23;;;;;;;1999.90;999.90;;;9.10;99.90;;;;;;5094532;28;20407;-65
2022/11/06 07:23:49;;;;;;;1999.90;999.90;;;9.20;99.90;;;;;;5094349;28;20991;-65
2022/11/06 07:26:15;;;;;;;1999.90;999.90;;;9.30;99.90;;;;;;5094131;28;20204;-65
2022/11/06 07:28:41;;;;;;;1999.90;999.90;;;9.40;99.90;;;;;;5094250;28;20451;-66
2022/11/06 07:31:07;;;;;;;1999.90;999.90;;;9.50;99.90;;;;;;5094500;28;20418;-65
2022/11/06 07:33:34;;;;;;;1999.90;999.90;;;9.60;99.90;;;;;;5094087;28;20185;-66
2022/11/06 07:36:10;;;;;;;1999.90;999.90;;;9.70;99.90;;;;;;5094629;28;20414;-65
2022/11/06 07:38:38;;;;;;;1999.90;999.90;;;9.80;99.90;;;;;;5094592;28;20501;-65
2022/11/06 07:41:09;;;;;;;1999.90;999.90;;;9.90;99.90;;;;;;5094563;28;20881;-65
2022/11/06 07:43:35;;;;;;;1999.90;999.90;;;10.00;99.90;;;;;;5094415;28;20423;-66
2022/11/06 07:46:03;;;;;;;1999.90;999.90;;;10.20;99.90;;;;;;5094510;28;20407;-66
2022/11/06 07:48:29;;;;;;;1999.90;999.90;;;10.20;99.90;;;;;;5094164;28;20464;-65
2022/11/06 07:50:55;;;;;;;1999.90;999.90;;;10.30;99.90;;;;;;5094677;28;20482;-66
2022/11/06 07:53:22;;;;;;;1999.90;999.90;;;10.40;99.90;;;;;;5094594;28;20795;-66
2022/11/06 07:55:52;;;;;;;1999.90;999.90;;;10.40;99.90;;;;;;5094750;28;20401;-65
2022/11/06 07:58:18;;;;;;;1999.90;999.90;;;10.40;99.90;;;;;;5094428;28;20410;-65
2022/11/06 08:00:50;;;;;;;1999.90;999.90;;;10.40;99.90;;;;;;5094794;28;20434;-65
2022/11/06 08:03:16;;;;;;;1999.90;999.90;;;10.40;99.90;;;;;;5093909;28;20428;-65
2022/11/06 08:05:42;;;;;;;1999.90;999.90;;;10.50;99.90;;;;;;5092824;28;20400;-65
2022/11/06 08:08:08;;;;;;;1999.90;999.90;;;10.60;99.90;;;;;;5092437;28;20207;-65
2022/11/06 08:10:39;;;;;;;1999.90;999.90;;;10.70;99.90;;;;;;5092786;28;20503;-65
2022/11/06 08:13:08;;;;;;;1999.90;999.90;;;10.80;99.90;;;;;;5093345;28;20915;-65
2022/11/06 08:15:35;;;;;;;1999.90;999.90;;;10.90;99.90;;;;;;5092529;28;20826;-65
2022/11/06 08:18:01;;;;;;;1999.90;999.90;;;11.00;99.90;;;;;;5092099;28;20411;-65
2022/11/06 08:20:26;;;;;;;1999.90;999.90;;;11.00;99.90;;;;;;5092478;28;20416;-65
2022/11/06 08:22:56;;;;;;;1999.90;999.90;;;11.10;99.90;;;;;;5092429;28;20206;-65
2022/11/06 08:25:22;;;;;;;1999.90;999.90;;;11.20;99.90;;;;;;5093956;28;20240;-66
2022/11/06 08:27:47;;;;;;;1999.90;999.90;;;11.20;99.90;;;;;;5092973;28;20481;-65
2022/11/06 08:30:13;;;;;;;1999.90;999.90;;;11.30;99.90;;;;;;5093368;28;20165;-66
2022/11/06 08:32:38;;;;;;;1999.90;999.90;;;11.40;99.90;;;;;;5093891;28;20245;-66
2022/11/06 08:35:05;;;;;;;1999.90;999.90;;;11.50;99.90;;;;;;5093058;28;20264;-65
2022/11/06 08:37:30;;;;;;;1999.90;999.90;;;11.50;99.90;;;;;;5093635;28;20170;-65
2022/11/06 08:39:56;;;;;;;1999.90;999.90;;;11.50;99.90;;;;;;5094409;28;20415;-65
2022/11/06 08:42:21;;;;;;;1999.90;999.90;;;11.70;99.90;;;;;;5093814;28;20216;-65
2022/11/06 08:44:47;;;;;;;1999.90;999.90;;;11.80;99.90;;;;;;5093815;28;20547;-65
2022/11/06 08:47:12;;;;;;;1999.90;999.90;;;11.90;99.90;;;;;;5093857;28;20174;-65
2022/11/06 08:49:38;;;;;;;1999.90;999.90;;;12.00;99.90;;;;;;5093958;28;20171;-65
2022/11/06 08:52:04;;;;;;;1999.90;999.90;;;12.10;99.90;;;;;;5075351;28;20518;-65
2022/11/06 08:54:29;;;;;;;1999.90;999.90;;;12.20;99.90;;;;;;5093629;28;20216;-65
2022/11/06 08:56:57;;;;;;;1999.90;999.90;;;12.30;99.90;;;;;;5092842;28;20175;-65
2022/11/06 08:59:22;;;;;;;1999.90;999.90;;;12.40;99.90;;;;;;5093419;28;20201;-65
2022/11/06 09:01:48;;;;;;;1999.90;999.90;;;12.40;99.90;;;;;;5093473;28;20877;-65
2022/11/06 09:04:13;;;;;;;1999.90;999.90;;;12.50;99.90;;;;;;5093059;28;20198;-65
2022/11/06 09:06:39;;;;;;;1999.90;999.90;;;12.50;99.90;;;;;;5092887;28;20171;-65
2022/11/06 09:09:04;;;;;;;1999.90;999.90;;;12.50;99.90;;;;;;5093131;28;20198;-65
2022/11/06 09:11:31;;;;;;;1999.90;999.90;;;12.50;99.90;;;;;;5092554;28;20634;-65
2022/11/06 09:13:57;;;;;;;1999.90;999.90;;;12.50;99.90;;;;;;5092831;28;20564;-65
2022/11/06 09:16:23;;;;;;;1999.90;999.90;;;12.50;99.90;;;;;;5092664;28;20404;-65
2022/11/06 09:18:49;;;;;;;1999.90;999.90;;;12.60;99.90;;;;;;5092151;28;20409;-65
2022/11/06 09:21:14;;;;;;;1999.90;999.90;;;12.60;99.90;;;;;;5091818;28;20951;-65
2022/11/06 09:23:40;;;;;;;1999.90;999.90;;;12.50;99.90;;;;;;5091394;28;20204;-65
2022/11/06 09:26:05;;;;;;;1999.90;999.90;;;12.40;99.90;;;;;;5090907;28;20175;-65
2022/11/06 09:28:31;;;;;;;1999.90;999.90;;;12.40;99.90;;;;;;5090468;28;20194;-65
2022/11/06 09:30:57;;;;;;;1999.90;999.90;;;12.40;99.90;;;;;;5090821;28;20202;-65
2022/11/06 09:33:22;;;;;;;1999.90;999.90;;;12.40;99.90;;;;;;5090719;28;20189;-65
2022/11/06 09:35:48;;;;;;;1999.90;999.90;;;12.50;99.90;;;;;;5090642;28;20240;-65
2022/11/06 09:38:17;;;;;;;1999.90;999.90;;;12.70;99.90;;;;;;5091075;28;20182;-65
2022/11/06 09:40:53;;;;;;;1999.90;999.90;;;12.90;99.90;;;;;;5091114;28;20190;-65
2022/11/06 09:43:31;;;;;;;1999.90;999.90;;;13.10;99.90;;;;;;5090559;28;20518;-65
2022/11/06 09:46:17;;;;;;;1999.90;999.90;;;13.40;99.90;;;;;;5091521;28;20496;-66
2022/11/06 09:48:46;;;;;;;1999.90;999.90;;;13.60;99.90;;;;;;5090399;28;20474;-65
2022/11/06 09:51:38;;;;;;;1999.90;999.90;;;13.60;99.90;;;;;;5090559;28;20402;-65
2022/11/06 09:54:19;;;;;;;1999.90;999.90;;;13.80;99.90;;;;;;5090812;28;20453;-65
2022/11/06 09:56:48;;;;;;;1999.90;999.90;;;13.80;99.90;;;;;;5090731;28;20397;-66
2022/11/06 09:59:17;;;;;;;1999.90;999.90;;;13.80;99.90;;;;;;5091084;28;20474;-65
2022/11/06 10:01:51;;;;;;;1999.90;999.90;;;13.80;99.90;;;;;;5091095;28;20501;-65
2022/11/06 10:04:39;;;;;;;1999.90;999.90;;;14.00;99.90;;;;;;5090907;28;20419;-65
2022/11/06 10:07:30;;;;;;;1999.90;999.90;;;14.10;99.90;;;;;;5091209;28;20409;-65
2022/11/06 10:09:56;;;;;;;1999.90;999.90;;;14.00;99.90;;;;;;5093781;28;20416;-65
2022/11/06 10:12:55;;;;;;;1999.90;999.90;;;13.90;99.90;;;;;;5093510;28;20444;-65
2022/11/06 10:15:31;;;;;;;1999.90;999.90;;;13.70;99.90;;;;;;5093401;28;20429;-65
2022/11/06 10:18:15;;;;;;;1999.90;999.90;;;13.60;99.90;;;;;;5093409;28;20412;-65
2022/11/06 10:20:49;;;;;;;1999.90;999.90;;;13.50;99.90;;;;;;5093660;28;20408;-65
2022/11/06 10:23:14;;;;;;;1999.90;999.90;;;13.40;99.90;;;;;;5049269;28;1264330;-66
2022/11/06 10:25:54;;;;;;;1999.90;999.90;;;13.50;99.90;;;;;;5094709;28;20393;-65
2022/11/06 10:28:57;;;;;;;1999.90;999.90;;;13.60;99.90;;;;;;5094712;28;20198;-65
2022/11/06 10:31:51;;;;;;;1999.90;999.90;;;13.60;99.90;;;;;;5094998;28;20424;-65
2022/11/06 10:34:23;;;;;;;1999.90;999.90;;;13.50;99.90;;;;;;5094666;28;20458;-65
2022/11/06 10:37:02;;;;;;;1999.90;999.90;;;13.40;99.90;;;;;;5094558;28;20409;-65
2022/11/06 10:39:30;;;;;;;1999.90;999.90;;;13.40;99.90;;;;;;5094848;28;20452;-65
2022/11/06 10:42:21;;;;;;;1999.90;999.90;;;13.40;99.90;;;;;;5094367;28;20923;-65
2022/11/06 10:45:03;;;;;;;1999.90;999.90;;;13.30;99.90;;;;;;5083210;28;20432;-65
2022/11/06 10:47:43;;;;;;;1999.90;999.90;;;13.20;99.90;;;;;;5094016;28;20455;-64
2022/11/06 10:50:15;;;;;;;1999.90;999.90;;;13.30;99.90;;;;;;5094214;28;20400;-65
2022/11/06 10:52:50;;;;;;;1999.90;999.90;;;13.40;99.90;;;;;;5094170;28;20398;-64
2022/11/06 10:55:38;;;;;;;1999.90;999.90;;;13.40;99.90;;;;;;5094007;28;20476;-65
2022/11/06 10:58:12;;;;;;;1999.90;999.90;;;13.40;99.90;;;;;;5093797;28;20408;-65
2022/11/06 11:00:38;;;;;;;1999.90;999.90;;;13.30;99.90;;;;;;5094066;28;20482;-65
2022/11/06 11:03:15;;;;;;;1999.90;999.90;;;13.20;99.90;;;;;;5095268;28;20405;-65
2022/11/06 11:05:42;;;;;;;1999.90;999.90;;;13.20;99.90;;;;;;5091477;28;20394;-67
2022/11/06 11:08:30;;;;;;;1999.90;999.90;;;13.20;99.90;;;;;;5091648;28;20452;-66
2022/11/06 11:11:13;;;;;;;1999.90;999.90;;;13.20;99.90;;;;;;5093947;28;20751;-66
2022/11/06 11:13:39;;;;;;;1999.90;999.90;;;13.30;99.90;;;;;;5093181;28;20417;-67
2022/11/06 11:16:17;;;;;;;1999.90;999.90;;;13.40;99.90;;;;;;5093613;28;20488;-67
2022/11/06 11:18:44;;;;;;;1999.90;999.90;;;13.50;99.90;;;;;;5092849;28;20822;-67
2022/11/06 11:21:28;;;;;;;1999.90;999.90;;;13.70;99.90;;;;;;5093017;28;20423;-66
2022/11/06 11:23:59;;;;;;;1999.90;999.90;;;13.80;99.90;;;;;;5092841;28;20443;-68
2022/11/06 11:26:28;;;;;;;1999.90;999.90;;;14.10;99.90;;;;;;5092925;28;20772;-67
2022/11/06 11:28:56;;;;;;;1999.90;999.90;;;14.30;99.90;;;;;;5092506;28;20456;-67
2022/11/06 11:31:33;;;;;;;1999.90;999.90;;;14.60;99.90;;;;;;5092923;28;20438;-68
2022/11/06 11:34:02;;;;;;;1999.90;999.90;;;14.70;99.90;;;;;;5093009;28;20878;-68
2022/11/06 11:36:57;;;;;;;1999.90;999.90;;;14.80;99.90;;;;;;5092270;28;20452;-68
2022/11/06 11:39:26;;;;;;;1999.90;999.90;;;15.20;99.90;;;;;;5092831;28;20406;-68
2022/11/06 11:41:52;;;;;;;1999.90;999.90;;;15.90;99.90;;;;;;5092817;28;20488;-69
2022/11/06 11:44:19;;;;;;;1999.90;999.90;;;16.50;99.90;;;;;;5092326;28;20516;-68
2022/11/06 11:46:46;;;;;;;1999.90;999.90;;;17.10;99.90;;;;;;5092477;28;20172;-65
2022/11/06 11:49:31;;;;;;;1999.90;999.90;;;17.00;99.90;;;;;;5092363;28;20945;-66
2022/11/06 11:52:00;;;;;;;1999.90;999.90;;;16.80;99.90;;;;;;5091670;28;20392;-65
2022/11/06 11:54:30;;;;;;;1999.90;999.90;;;16.30;99.90;;;;;;5091948;28;20431;-65
2022/11/06 11:57:02;;;;;;;1999.90;999.90;;;15.80;99.90;;;;;;5092293;28;20396;-65
2022/11/06 11:59:44;;;;;;;1999.90;999.90;;;15.60;99.90;;;;;;5091805;28;20495;-65
2022/11/06 12:02:18;;;;;;;1999.90;999.90;;;15.50;99.90;;;;;;5092419;28;20401;-65
2022/11/06 12:04:49;;;;;;;1999.90;999.90;;;15.30;99.90;;;;;;5092195;28;20441;-66
2022/11/06 12:07:30;;;;;;;1999.90;999.90;;;15.20;99.90;;;;;;5092623;28;20409;-66
2022/11/06 12:09:57;;;;;;;1999.90;999.90;;;15.00;99.90;;;;;;5092583;28;20400;-65
2022/11/06 12:12:30;;;;;;;1999.90;999.90;;;14.90;99.90;;;;;;5091780;28;20405;-65
2022/11/06 12:15:10;;;;;;;1999.90;999.90;;;15.20;99.90;;;;;;5092127;28;20652;-65
2022/11/06 12:17:39;;;;;;;1999.90;999.90;;;16.00;99.90;;;;;;5093580;28;20403;-65
2022/11/06 12:20:13;;;;;;;1999.90;999.90;;;16.70;99.90;;;;;;5092830;28;20409;-65
2022/11/06 12:22:43;;;;;;;1999.90;999.90;;;17.30;99.90;;;;;;5091927;28;20442;-65
2022/11/06 12:25:26;;;;;;;1999.90;999.90;;;17.40;99.90;;;;;;5091688;28;20443;-65
2022/11/06 12:27:59;;;;;;;1999.90;999.90;;;17.10;99.90;;;;;;5091313;28;21236;-65
2022/11/06 12:30:25;;;;;;;1999.90;999.90;;;16.60;99.90;;;;;;5092421;28;20409;-65
2022/11/06 12:32:57;;;;;;;1999.90;999.90;;;16.30;99.90;;;;;;5093146;28;20405;-65
2022/11/06 12:36:03;;;;;;;1999.90;999.90;;;16.00;99.90;;;;;;5091700;28;20426;-65